Time;durP1;ratioP1;P1;durP2;ratioP2;P2;SDS_P1;SDS_P2;PMS_P1;PMS_P2;Temp;Humidity;BMP_temperature;BMP_pressure;BME280_temperature;BME280_humidity;BME280_pressure;Samples;Min_cycle;Max_cycle;Signal;HPM_P1;HPM_P2
2023/04/09 00:00:04;;;;;;;36.33;24.95;;;;;;;;;;5037369;28;20109;-66
2023/04/09 00:02:30;;;;;;;33.58;24.98;;;;;;;;;;5040217;28;20053;-67
2023/04/09 00:04:56;;;;;;;33.60;25.27;;;;;;;;;;5038883;28;20059;-67
2023/04/09 00:07:22;;;;;;;42.30;28.67;;;;;;;;;;5036401;28;20048;-67
2023/04/09 00:09:48;;;;;;;35.63;25.67;;;;;;;;;;5039574;28;20310;-66
2023/04/09 00:12:14;;;;;;;37.72;27.40;;;;;;;;;;5039927;28;20049;-67
2023/04/09 00:14:40;;;;;;;41.15;26.92;;;;;;;;;;5043172;28;20048;-67
2023/04/09 00:17:06;;;;;;;52.45;32.28;;;;;;;;;;5040918;28;20118;-67
2023/04/09 00:19:32;;;;;;;55.55;35.13;;;;;;;;;;5043837;28;20041;-67
2023/04/09 00:21:58;;;;;;;48.70;31.40;;;;;;;;;;5043016;28;20106;-67
2023/04/09 00:24:24;;;;;;;41.83;28.50;;;;;;;;;;5042164;28;20053;-67
2023/04/09 00:26:50;;;;;;;40.00;26.05;;;;;;;;;;5041969;28;20044;-67
2023/04/09 00:29:16;;;;;;;36.35;23.35;;;;;;;;;;5043007;28;20499;-66
2023/04/09 00:31:42;;;;;;;34.45;24.10;;;;;;;;;;5041493;28;20135;-67
2023/04/09 00:34:08;;;;;;;32.38;22.48;;;;;;;;;;5041986;28;20567;-67
2023/04/09 00:36:34;;;;;;;36.38;25.85;;;;;;;;;;5043476;28;20084;-67
2023/04/09 00:39:00;;;;;;;48.50;33.20;;;;;;;;;;5042483;28;20041;-67
2023/04/09 00:41:26;;;;;;;43.78;30.83;;;;;;;;;;5041295;28;20048;-66
2023/04/09 00:43:52;;;;;;;44.33;29.27;;;;;;;;;;5042578;28;20490;-67
2023/04/09 00:46:18;;;;;;;47.70;33.28;;;;;;;;;;5042940;28;20052;-67
2023/04/09 00:48:44;;;;;;;41.55;29.17;;;;;;;;;;5042735;28;20102;-67
2023/04/09 00:51:10;;;;;;;39.85;28.48;;;;;;;;;;5042062;28;20072;-66
2023/04/09 00:53:36;;;;;;;41.35;27.95;;;;;;;;;;5041500;28;20087;-67
2023/04/09 00:56:03;;;;;;;35.72;25.88;;;;;;;;;;5042439;28;20044;-67
2023/04/09 00:58:29;;;;;;;33.38;25.33;;;;;;;;;;5042562;28;20040;-67
2023/04/09 01:00:55;;;;;;;38.80;26.48;;;;;;;;;;5042855;28;20071;-67
2023/04/09 01:03:21;;;;;;;34.75;25.55;;;;;;;;;;5042047;28;20553;-67
2023/04/09 01:05:47;;;;;;;32.58;22.08;;;;;;;;;;5042232;28;20087;-67
2023/04/09 01:08:22;;;;;;;32.58;22.27;;;;;;;;;;5042663;28;20077;-67
2023/04/09 01:10:57;;;;;;;42.17;28.40;;;;;;;;;;5041994;28;20052;-67
2023/04/09 01:13:28;;;;;;;36.00;26.80;;;;;;;;;;5042552;28;20492;-67
2023/04/09 01:15:56;;;;;;;30.17;22.20;;;;;;;;;;5040506;28;20051;-67
2023/04/09 01:18:25;;;;;;;33.28;23.55;;;;;;;;;;5040902;28;20111;-67
2023/04/09 01:21:11;;;;;;;27.67;20.60;;;;;;;;;;5042153;28;20040;-67
2023/04/09 01:23:51;;;;;;;38.10;26.35;;;;;;;;;;5041868;28;20045;-67
2023/04/09 01:26:23;;;;;;;34.47;24.58;;;;;;;;;;5041997;28;20045;-66
2023/04/09 01:28:52;;;;;;;31.02;22.15;;;;;;;;;;5037301;28;20063;-67
2023/04/09 01:31:19;;;;;;;34.30;23.42;;;;;;;;;;5041750;28;20053;-67
2023/04/09 01:33:46;;;;;;;35.70;24.20;;;;;;;;;;5040814;28;20052;-67
2023/04/09 01:36:12;;;;;;;27.98;20.70;;;;;;;;;;5042282;28;20391;-67
2023/04/09 01:38:40;;;;;;;23.13;17.75;;;;;;;;;;5039756;28;20052;-66
2023/04/09 01:41:08;;;;;;;22.23;16.52;;;;;;;;;;5042234;28;20049;-67
2023/04/09 01:43:34;;;;;;;19.60;14.60;;;;;;;;;;5041489;28;20036;-67
2023/04/09 01:46:02;;;;;;;20.52;14.07;;;;;;;;;;5042404;28;20037;-67
2023/04/09 01:48:29;;;;;;;15.82;11.75;;;;;;;;;;5043629;28;20049;-67
2023/04/09 01:50:56;;;;;;;15.18;12.35;;;;;;;;;;5041385;28;20103;-66
2023/04/09 01:53:22;;;;;;;15.50;11.38;;;;;;;;;;5042451;28;20060;-67
2023/04/09 01:55:48;;;;;;;14.02;10.77;;;;;;;;;;5044701;28;20045;-67
2023/04/09 01:58:14;;;;;;;12.63;10.15;;;;;;;;;;5044261;28;20056;-67
2023/04/09 02:00:43;;;;;;;15.07;10.07;;;;;;;;;;5046191;28;20095;-67
2023/04/09 02:03:16;;;;;;;13.40;10.45;;;;;;;;;;5045510;28;20525;-67
2023/04/09 02:05:45;;;;;;;14.50;10.13;;;;;;;;;;5045910;28;20040;-67
2023/04/09 02:08:12;;;;;;;12.93;10.02;;;;;;;;;;5046278;28;20037;-67
2023/04/09 02:10:40;;;;;;;13.80;10.23;;;;;;;;;;5043439;28;20049;-67
2023/04/09 02:13:09;;;;;;;10.77;8.25;;;;;;;;;;5044635;28;20143;-67
2023/04/09 02:15:36;;;;;;;10.15;8.20;;;;;;;;;;5044068;28;20056;-67
2023/04/09 02:18:02;;;;;;;11.05;7.50;;;;;;;;;;5046018;28;20387;-67
2023/04/09 02:20:28;;;;;;;7.95;6.85;;;;;;;;;;5045504;28;20094;-67
2023/04/09 02:22:54;;;;;;;9.10;7.55;;;;;;;;;;5045269;28;20052;-67
2023/04/09 02:25:23;;;;;;;8.38;7.20;;;;;;;;;;5045929;28;20037;-67
2023/04/09 02:27:49;;;;;;;9.95;7.97;;;;;;;;;;5044498;28;20045;-67
2023/04/09 02:30:15;;;;;;;8.80;7.40;;;;;;;;;;5045737;28;20037;-67
2023/04/09 02:32:41;;;;;;;8.60;6.97;;;;;;;;;;5043309;28;20487;-67
2023/04/09 02:35:07;;;;;;;8.13;7.18;;;;;;;;;;5044933;28;20045;-67
2023/04/09 02:37:33;;;;;;;7.72;6.47;;;;;;;;;;5045479;28;20047;-67
2023/04/09 02:39:59;;;;;;;8.60;6.45;;;;;;;;;;5045571;28;20075;-67
2023/04/09 02:42:25;;;;;;;6.65;5.95;;;;;;;;;;5045356;28;20124;-66
2023/04/09 02:44:51;;;;;;;7.38;6.05;;;;;;;;;;5045208;28;20487;-67
2023/04/09 02:47:17;;;;;;;6.82;6.13;;;;;;;;;;5045141;28;20090;-67
2023/04/09 02:49:43;;;;;;;6.93;5.97;;;;;;;;;;5045644;28;20168;-67
2023/04/09 02:52:10;;;;;;;8.77;7.07;;;;;;;;;;5045020;28;20041;-67
2023/04/09 02:54:36;;;;;;;11.57;8.57;;;;;;;;;;5044793;28;20053;-67
2023/04/09 02:57:02;;;;;;;9.68;7.28;;;;;;;;;;5046091;28;20110;-67
2023/04/09 02:59:28;;;;;;;10.57;8.45;;;;;;;;;;5043142;28;20041;-67
2023/04/09 03:01:54;;;;;;;11.63;9.32;;;;;;;;;;5041906;28;20128;-67
2023/04/09 03:04:20;;;;;;;12.68;8.95;;;;;;;;;;5045125;28;20120;-66
2023/04/09 03:06:46;;;;;;;13.50;10.05;;;;;;;;;;5043937;28;20041;-67
2023/04/09 03:09:12;;;;;;;13.77;10.93;;;;;;;;;;5044809;28;20074;-66
2023/04/09 03:11:38;;;;;;;18.35;12.30;;;;;;;;;;5042507;28;20052;-67
2023/04/09 03:14:04;;;;;;;15.65;11.82;;;;;;;;;;5045410;28;20049;-66
2023/04/09 03:16:30;;;;;;;13.73;10.48;;;;;;;;;;5043078;28;20052;-67
2023/04/09 03:18:56;;;;;;;12.70;9.80;;;;;;;;;;5045330;28;20052;-67
2023/04/09 03:21:22;;;;;;;10.75;8.65;;;;;;;;;;5045569;28;20049;-66
2023/04/09 03:23:48;;;;;;;12.00;7.82;;;;;;;;;;5043811;28;20152;-67
2023/04/09 03:26:14;;;;;;;10.32;8.02;;;;;;;;;;5044488;28;20041;-67
2023/04/09 03:28:40;;;;;;;12.57;8.73;;;;;;;;;;5044741;28;20037;-67
2023/04/09 03:31:06;;;;;;;11.98;10.05;;;;;;;;;;5042102;28;20068;-67
2023/04/09 03:33:32;;;;;;;9.35;7.63;;;;;;;;;;5045677;28;20483;-67
2023/04/09 03:35:58;;;;;;;10.02;8.85;;;;;;;;;;5044187;28;20048;-66
2023/04/09 03:38:24;;;;;;;9.02;7.53;;;;;;;;;;5043307;28;20545;-67
2023/04/09 03:40:50;;;;;;;9.70;7.40;;;;;;;;;;5043888;28;20049;-66
2023/04/09 03:43:16;;;;;;;7.95;6.60;;;;;;;;;;5042927;28;20040;-67
2023/04/09 03:45:42;;;;;;;11.43;8.45;;;;;;;;;;5044699;28;20037;-67
2023/04/09 03:48:08;;;;;;;10.63;8.23;;;;;;;;;;5044321;28;20550;-67
2023/04/09 03:50:38;;;;;;;8.32;7.13;;;;;;;;;;5044798;28;20115;-67
2023/04/09 03:53:04;;;;;;;8.82;7.20;;;;;;;;;;5044115;28;20048;-67
2023/04/09 03:55:30;;;;;;;8.30;6.85;;;;;;;;;;5045861;28;20158;-67
2023/04/09 03:57:56;;;;;;;9.05;6.63;;;;;;;;;;5042374;28;20048;-67
2023/04/09 04:00:22;;;;;;;8.00;6.10;;;;;;;;;;5042775;28;20439;-66
2023/04/09 04:02:48;;;;;;;7.13;5.90;;;;;;;;;;5044316;28;20081;-67
2023/04/09 04:05:14;;;;;;;9.07;6.22;;;;;;;;;;5043999;28;20480;-67
2023/04/09 04:07:42;;;;;;;6.88;5.82;;;;;;;;;;5043644;28;20091;-67
2023/04/09 04:10:09;;;;;;;8.27;6.07;;;;;;;;;;5042455;28;20710;-67
2023/04/09 04:12:35;;;;;;;7.88;6.47;;;;;;;;;;5043900;28;20495;-67
2023/04/09 04:15:01;;;;;;;6.82;5.72;;;;;;;;;;5044673;28;20055;-67
2023/04/09 04:17:27;;;;;;;8.23;6.95;;;;;;;;;;5044173;28;20118;-67
2023/04/09 04:19:53;;;;;;;6.85;6.07;;;;;;;;;;5043075;28;20497;-67
2023/04/09 04:22:19;;;;;;;6.97;5.65;;;;;;;;;;5042907;28;20044;-67
2023/04/09 04:24:45;;;;;;;7.07;5.63;;;;;;;;;;5043227;28;20762;-66
2023/04/09 04:27:11;;;;;;;6.53;5.57;;;;;;;;;;5041758;28;20112;-67
2023/04/09 04:29:37;;;;;;;8.25;5.97;;;;;;;;;;5042890;28;20126;-67
2023/04/09 04:32:03;;;;;;;6.78;6.00;;;;;;;;;;5043677;28;20068;-66
2023/04/09 04:34:29;;;;;;;7.95;6.15;;;;;;;;;;5043568;28;20080;-66
2023/04/09 04:36:55;;;;;;;7.38;5.68;;;;;;;;;;5043663;28;20076;-67
2023/04/09 04:39:21;;;;;;;7.65;5.88;;;;;;;;;;5043257;28;20174;-67
2023/04/09 04:41:47;;;;;;;7.60;6.53;;;;;;;;;;5043898;28;20525;-67
2023/04/09 04:44:13;;;;;;;7.40;6.28;;;;;;;;;;5043766;28;20044;-67
2023/04/09 04:46:39;;;;;;;9.02;7.45;;;;;;;;;;5041561;28;20048;-67
2023/04/09 04:49:05;;;;;;;9.75;7.72;;;;;;;;;;5041824;28;20554;-67
2023/04/09 04:51:31;;;;;;;7.50;6.57;;;;;;;;;;5044101;28;20071;-67
2023/04/09 04:53:57;;;;;;;6.43;5.57;;;;;;;;;;5042653;28;20107;-66
2023/04/09 04:56:23;;;;;;;8.05;6.53;;;;;;;;;;5042103;28;20064;-67
2023/04/09 04:58:49;;;;;;;8.52;6.82;;;;;;;;;;5041076;28;20037;-67
2023/04/09 05:01:15;;;;;;;6.93;6.22;;;;;;;;;;5041641;28;20681;-67
2023/04/09 05:03:41;;;;;;;7.40;6.38;;;;;;;;;;5042686;28;20052;-67
2023/04/09 05:06:07;;;;;;;7.80;6.75;;;;;;;;;;5040220;28;20077;-67
2023/04/09 05:08:34;;;;;;;8.65;6.55;;;;;;;;;;5043121;28;20041;-67
2023/04/09 05:11:00;;;;;;;8.05;6.53;;;;;;;;;;5043164;28;20076;-66
2023/04/09 05:13:26;;;;;;;8.68;7.50;;;;;;;;;;5043319;28;20096;-67
2023/04/09 05:15:52;;;;;;;6.20;5.60;;;;;;;;;;5040908;28;20542;-66
2023/04/09 05:18:18;;;;;;;7.30;6.00;;;;;;;;;;5042609;28;20054;-66
2023/04/09 05:20:44;;;;;;;7.60;5.85;;;;;;;;;;5043378;28;20106;-67
2023/04/09 05:23:11;;;;;;;9.20;7.13;;;;;;;;;;5040961;28;20547;-67
2023/04/09 05:25:37;;;;;;;9.35;6.47;;;;;;;;;;5040401;28;20513;-67
2023/04/09 05:28:03;;;;;;;7.32;6.35;;;;;;;;;;5042979;28;20045;-66
2023/04/09 05:30:29;;;;;;;6.32;5.55;;;;;;;;;;5041798;28;20082;-66
2023/04/09 05:32:55;;;;;;;8.55;6.88;;;;;;;;;;5042625;28;20933;-66
2023/04/09 05:35:21;;;;;;;6.75;5.60;;;;;;;;;;5042498;28;20052;-67
2023/04/09 05:37:47;;;;;;;9.55;7.35;;;;;;;;;;5041707;28;20046;-67
2023/04/09 05:40:14;;;;;;;7.22;6.20;;;;;;;;;;5042792;28;20044;-67
2023/04/09 05:42:40;;;;;;;9.48;7.50;;;;;;;;;;5042682;28;20045;-67
2023/04/09 05:45:06;;;;;;;9.20;6.90;;;;;;;;;;5039932;28;20439;-67
2023/04/09 05:47:32;;;;;;;6.88;6.18;;;;;;;;;;5043662;28;20044;-67
2023/04/09 05:49:58;;;;;;;8.88;7.63;;;;;;;;;;5041755;28;20041;-66
2023/04/09 05:52:25;;;;;;;8.88;7.55;;;;;;;;;;5042353;28;20445;-67
2023/04/09 05:54:51;;;;;;;10.68;7.55;;;;;;;;;;5042273;28;20128;-67
2023/04/09 05:57:17;;;;;;;10.90;7.82;;;;;;;;;;5034764;28;20139;-67
2023/04/09 05:59:43;;;;;;;12.88;9.93;;;;;;;;;;5040747;28;20052;-67
2023/04/09 06:02:09;;;;;;;24.13;16.27;;;;;;;;;;5041571;28;20036;-67
2023/04/09 06:04:35;;;;;;;24.83;18.13;;;;;;;;;;5042603;28;20045;-67
2023/04/09 06:07:02;;;;;;;22.33;15.85;;;;;;;;;;5040839;28;20041;-66
2023/04/09 06:09:28;;;;;;;19.02;14.20;;;;;;;;;;5042147;28;20059;-67
2023/04/09 06:11:54;;;;;;;18.55;14.63;;;;;;;;;;5041220;28;20037;-67
2023/04/09 06:14:20;;;;;;;15.40;11.80;;;;;;;;;;5041244;28;20078;-67
2023/04/09 06:16:46;;;;;;;15.23;11.82;;;;;;;;;;5039011;28;20057;-66
2023/04/09 06:19:12;;;;;;;15.30;11.27;;;;;;;;;;5040146;28;20052;-70
2023/04/09 06:21:39;;;;;;;17.63;12.43;;;;;;;;;;5042441;28;20057;-67
2023/04/09 06:24:06;;;;;;;15.07;11.73;;;;;;;;;;5042187;28;20109;-67
2023/04/09 06:26:31;;;;;;;14.77;11.95;;;;;;;;;;5041896;28;20041;-66
2023/04/09 06:28:57;;;;;;;14.85;11.73;;;;;;;;;;5041537;28;20041;-66
2023/04/09 06:31:23;;;;;;;20.98;15.68;;;;;;;;;;5041928;28;20072;-66
2023/04/09 06:33:49;;;;;;;19.02;14.98;;;;;;;;;;5038685;28;20431;-67
2023/04/09 06:36:16;;;;;;;20.55;16.55;;;;;;;;;;5042142;28;20509;-66
2023/04/09 06:38:42;;;;;;;19.85;15.20;;;;;;;;;;5041753;28;20453;-66
2023/04/09 06:41:08;;;;;;;16.50;12.65;;;;;;;;;;5042387;28;20048;-66
2023/04/09 06:43:36;;;;;;;17.77;13.60;;;;;;;;;;5044892;28;20036;-66
2023/04/09 06:46:02;;;;;;;17.08;12.82;;;;;;;;;;5044587;28;20051;-66
2023/04/09 06:48:28;;;;;;;15.65;12.38;;;;;;;;;;5045453;28;20117;-66
2023/04/09 06:50:54;;;;;;;16.35;12.40;;;;;;;;;;5043766;28;20040;-66
2023/04/09 06:53:20;;;;;;;16.38;12.35;;;;;;;;;;5043011;28;20283;-66
2023/04/09 06:55:46;;;;;;;21.30;15.93;;;;;;;;;;5044116;28;20048;-66
2023/04/09 06:58:12;;;;;;;20.75;15.52;;;;;;;;;;5043243;28;20136;-66
2023/04/09 07:00:38;;;;;;;22.08;17.02;;;;;;;;;;5044840;28;20048;-67
2023/04/09 07:03:06;;;;;;;21.75;14.95;;;;;;;;;;5045158;28;20048;-66
2023/04/09 07:05:32;;;;;;;16.98;13.20;;;;;;;;;;5046283;28;20049;-66
2023/04/09 07:07:58;;;;;;;15.00;12.18;;;;;;;;;;5043237;28;20098;-67
2023/04/09 07:10:24;;;;;;;16.73;12.90;;;;;;;;;;5043737;28;20111;-66
2023/04/09 07:12:50;;;;;;;15.10;12.57;;;;;;;;;;5043335;28;20044;-66
2023/04/09 07:15:16;;;;;;;14.13;11.63;;;;;;;;;;5042903;28;20047;-66
2023/04/09 07:17:42;;;;;;;16.30;12.50;;;;;;;;;;5042699;28;20041;-66
2023/04/09 07:20:09;;;;;;;15.43;12.85;;;;;;;;;;5042380;28;20040;-67
2023/04/09 07:22:35;;;;;;;21.45;16.02;;;;;;;;;;5042416;28;20056;-66
2023/04/09 07:25:01;;;;;;;17.65;14.57;;;;;;;;;;5044326;28;20041;-66
2023/04/09 07:27:28;;;;;;;17.42;12.98;;;;;;;;;;5044656;28;20099;-67
2023/04/09 07:29:57;;;;;;;18.05;13.50;;;;;;;;;;5043673;28;20074;-66
2023/04/09 07:32:23;;;;;;;21.65;16.08;;;;;;;;;;5039033;28;20051;-66
2023/04/09 07:34:53;;;;;;;19.90;14.98;;;;;;;;;;5042284;28;20110;-66
2023/04/09 07:37:20;;;;;;;19.65;15.38;;;;;;;;;;5042828;28;20040;-66
2023/04/09 07:39:47;;;;;;;24.00;16.40;;;;;;;;;;5043718;28;20049;-66
2023/04/09 07:42:13;;;;;;;21.20;15.88;;;;;;;;;;5042244;28;20769;-67
2023/04/09 07:44:39;;;;;;;18.23;14.57;;;;;;;;;;5044372;28;20045;-66
2023/04/09 07:47:06;;;;;;;20.88;15.50;;;;;;;;;;5041479;28;20045;-65
2023/04/09 07:49:32;;;;;;;19.70;14.93;;;;;;;;;;5044058;28;20049;-66
2023/04/09 07:51:59;;;;;;;20.27;14.95;;;;;;;;;;5043222;28;20037;-66
2023/04/09 07:54:25;;;;;;;19.52;15.25;;;;;;;;;;5043022;28;20559;-66
2023/04/09 07:56:51;;;;;;;16.92;14.07;;;;;;;;;;5041463;28;20127;-66
2023/04/09 07:59:17;;;;;;;17.50;12.23;;;;;;;;;;5041598;28;20057;-67
2023/04/09 08:01:43;;;;;;;17.20;14.35;;;;;;;;;;5043394;28;20052;-67
2023/04/09 08:04:11;;;;;;;21.95;16.85;;;;;;;;;;5042150;28;20043;-66
2023/04/09 08:06:37;;;;;;;18.10;14.75;;;;;;;;;;5044418;28;20563;-67
2023/04/09 08:09:03;;;;;;;21.40;15.50;;;;;;;;;;5043633;28;20583;-66
2023/04/09 08:11:29;;;;;;;22.70;16.30;;;;;;;;;;5042981;28;20067;-66
2023/04/09 08:13:56;;;;;;;21.52;16.20;;;;;;;;;;5043005;28;20507;-66
2023/04/09 08:16:23;;;;;;;25.98;19.30;;;;;;;;;;5044274;28;20049;-66
2023/04/09 08:18:52;;;;;;;20.52;16.08;;;;;;;;;;5043252;28;20044;-66
2023/04/09 08:21:18;;;;;;;19.77;15.13;;;;;;;;;;5044119;28;20041;-66
2023/04/09 08:23:44;;;;;;;24.67;18.52;;;;;;;;;;5042844;28;20076;-67
2023/04/09 08:26:10;;;;;;;22.35;16.77;;;;;;;;;;5043604;28;20033;-66
2023/04/09 08:28:36;;;;;;;22.85;16.70;;;;;;;;;;5044669;28;20107;-64
2023/04/09 08:31:02;;;;;;;27.98;18.38;;;;;;;;;;5042438;28;20741;-67
2023/04/09 08:33:29;;;;;;;24.90;18.58;;;;;;;;;;5043056;28;20049;-72
2023/04/09 08:35:55;;;;;;;20.23;15.35;;;;;;;;;;5044458;28;20491;-65
2023/04/09 08:38:21;;;;;;;20.85;16.52;;;;;;;;;;5043473;28;20045;-70
2023/04/09 08:40:47;;;;;;;29.98;20.13;;;;;;;;;;5045454;28;20045;-66
2023/04/09 08:43:18;;;;;;;26.77;19.23;;;;;;;;;;5044753;28;20844;-70
2023/04/09 08:45:44;;;;;;;26.48;18.67;;;;;;;;;;5044307;28;20063;-70
2023/04/09 08:48:12;;;;;;;21.90;16.30;;;;;;;;;;5042841;28;20045;-69
2023/04/09 08:50:38;;;;;;;24.08;17.08;;;;;;;;;;5044387;28;20052;-68
2023/04/09 08:53:05;;;;;;;27.67;20.08;;;;;;;;;;5041310;28;20127;-67
2023/04/09 08:55:33;;;;;;;23.08;17.10;;;;;;;;;;5039193;28;20041;-67
2023/04/09 08:57:59;;;;;;;27.05;19.92;;;;;;;;;;5042600;28;20080;-67
2023/04/09 09:00:26;;;;;;;23.38;18.27;;;;;;;;;;5043052;28;20413;-67
2023/04/09 09:03:05;;;;;;;29.75;20.58;;;;;;;;;;5043616;28;20171;-67
2023/04/09 09:05:35;;;;;;;25.88;18.52;;;;;;;;;;5039350;28;20048;-67
2023/04/09 09:08:01;;;;;;;24.77;18.40;;;;;;;;;;5043360;28;20110;-67
2023/04/09 09:10:41;;;;;;;24.67;17.98;;;;;;;;;;5042796;28;20061;-67
2023/04/09 09:13:20;;;;;;;25.85;19.35;;;;;;;;;;5040350;28;20078;-71
2023/04/09 09:15:49;;;;;;;24.15;19.15;;;;;;;;;;5042497;28;20053;-67
2023/04/09 09:18:15;;;;;;;21.65;16.42;;;;;;;;;;5044387;28;20060;-67
2023/04/09 09:20:41;;;;;;;23.77;16.92;;;;;;;;;;5044108;28;20129;-68
2023/04/09 09:23:07;;;;;;;22.15;16.77;;;;;;;;;;5041224;28;20045;-68
2023/04/09 09:25:40;;;;;;;23.38;16.35;;;;;;;;;;5042778;28;20636;-68
2023/04/09 09:28:07;;;;;;;20.52;15.63;;;;;;;;;;5040014;28;20135;-67
2023/04/09 09:30:35;;;;;;;21.27;17.08;;;;;;;;;;5031552;28;20091;-68
2023/04/09 09:33:05;;;;;;;26.50;20.13;;;;;;;;;;5038622;28;20064;-68
2023/04/09 09:35:46;;;;;;;27.35;18.55;;;;;;;;;;5035306;28;20045;-67
2023/04/09 09:38:12;;;;;;;27.40;18.35;;;;;;;;;;5039393;28;20087;-67
2023/04/09 09:40:38;;;;;;;23.15;16.55;;;;;;;;;;5039787;28;20057;-69
2023/04/09 09:43:04;;;;;;;20.10;15.73;;;;;;;;;;5043386;28;20052;-68
2023/04/09 09:45:31;;;;;;;23.85;18.08;;;;;;;;;;5040011;28;20040;-67
2023/04/09 09:47:57;;;;;;;30.30;20.70;;;;;;;;;;5037340;28;20099;-67
2023/04/09 09:50:24;;;;;;;25.23;18.00;;;;;;;;;;5036754;28;20136;-68
2023/04/09 09:52:51;;;;;;;18.85;15.30;;;;;;;;;;5032447;28;20503;-67
2023/04/09 09:55:18;;;;;;;19.75;15.25;;;;;;;;;;5032147;28;20316;-68
2023/04/09 09:57:44;;;;;;;15.85;13.48;;;;;;;;;;5032958;28;20459;-68
2023/04/09 10:00:12;;;;;;;16.42;12.23;;;;;;;;;;5038436;28;20094;-68
2023/04/09 10:02:46;;;;;;;21.92;16.77;;;;;;;;;;5034332;28;20192;-67
2023/04/09 10:05:12;;;;;;;19.98;15.95;;;;;;;;;;5039971;28;20048;-67
2023/04/09 10:07:38;;;;;;;20.00;15.80;;;;;;;;;;5037470;28;20049;-68
2023/04/09 10:10:05;;;;;;;20.90;15.98;;;;;;;;;;5034886;28;20037;-67
2023/04/09 10:12:31;;;;;;;19.80;16.83;;;;;;;;;;5040061;28;20064;-68
2023/04/09 10:15:03;;;;;;;21.98;16.98;;;;;;;;;;5039110;28;20945;-67
2023/04/09 10:17:30;;;;;;;22.08;16.70;;;;;;;;;;5046652;28;20045;-68
2023/04/09 10:20:00;;;;;;;19.95;15.55;;;;;;;;;;5029419;28;20053;-68
2023/04/09 10:22:29;;;;;;;22.38;17.73;;;;;;;;;;5035798;28;20049;-68
2023/04/09 10:24:56;;;;;;;21.05;16.17;;;;;;;;;;5041149;28;20589;-68
2023/04/09 10:27:22;;;;;;;20.10;15.60;;;;;;;;;;5039619;28;20491;-67
2023/04/09 10:29:50;;;;;;;23.40;17.15;;;;;;;;;;5044505;28;20049;-68
2023/04/09 10:32:21;;;;;;;22.83;16.60;;;;;;;;;;5044773;28;20499;-67
2023/04/09 10:34:48;;;;;;;19.58;16.10;;;;;;;;;;5046013;28;20483;-67
2023/04/09 10:37:15;;;;;;;24.10;18.05;;;;;;;;;;5046321;28;20048;-68
2023/04/09 10:39:46;;;;;;;21.08;16.70;;;;;;;;;;5041731;28;20547;-67
2023/04/09 10:42:14;;;;;;;24.30;18.85;;;;;;;;;;5045697;28;20566;-68
2023/04/09 10:44:41;;;;;;;23.67;19.40;;;;;;;;;;5046458;28;20047;-67
2023/04/09 10:47:08;;;;;;;23.35;18.77;;;;;;;;;;5044176;28;20053;-67
2023/04/09 10:49:37;;;;;;;25.33;18.92;;;;;;;;;;5047087;28;20183;-67
2023/04/09 10:52:04;;;;;;;20.50;15.90;;;;;;;;;;5045389;28;20438;-67
2023/04/09 10:54:33;;;;;;;21.38;18.17;;;;;;;;;;5045722;28;20052;-67
2023/04/09 10:57:08;;;;;;;23.38;17.75;;;;;;;;;;5044405;28;20147;-68
2023/04/09 10:59:41;;;;;;;20.88;16.73;;;;;;;;;;5045107;28;20060;-68
2023/04/09 11:02:21;;;;;;;22.90;18.00;;;;;;;;;;5045420;28;20084;-68
2023/04/09 11:04:47;;;;;;;22.33;18.52;;;;;;;;;;5041378;28;20045;-68
2023/04/09 11:07:14;;;;;;;21.92;17.67;;;;;;;;;;5044919;28;20052;-68
2023/04/09 11:09:41;;;;;;;20.13;15.70;;;;;;;;;;5045909;28;20041;-68
2023/04/09 11:12:07;;;;;;;17.92;15.30;;;;;;;;;;5045854;28;20613;-71
2023/04/09 11:14:33;;;;;;;19.73;14.63;;;;;;;;;;5037895;28;20090;-71
2023/04/09 11:16:59;;;;;;;20.73;17.27;;;;;;;;;;5043064;28;20056;-71
2023/04/09 11:19:25;;;;;;;20.52;16.80;;;;;;;;;;5045666;28;20045;-71
2023/04/09 11:21:51;;;;;;;19.55;16.25;;;;;;;;;;5044140;28;20060;-71
2023/04/09 11:24:18;;;;;;;18.58;16.27;;;;;;;;;;5045808;28;20037;-71
2023/04/09 11:26:46;;;;;;;19.25;15.15;;;;;;;;;;5045249;28;20037;-71
2023/04/09 11:29:12;;;;;;;20.98;17.25;;;;;;;;;;5044991;28;20067;-71
2023/04/09 11:31:38;;;;;;;17.45;15.27;;;;;;;;;;5045828;28;20149;-73
2023/04/09 11:34:04;;;;;;;18.95;14.02;;;;;;;;;;5046092;28;20103;-73
2023/04/09 11:36:31;;;;;;;18.85;15.32;;;;;;;;;;5045285;28;20049;-68
2023/04/09 11:38:58;;;;;;;19.20;15.88;;;;;;;;;;5044083;28;20045;-70
2023/04/09 11:41:34;;;;;;;21.83;17.35;;;;;;;;;;5043682;28;20702;-68
2023/04/09 11:44:02;;;;;;;22.67;17.98;;;;;;;;;;5045058;28;20163;-71
2023/04/09 11:46:29;;;;;;;20.50;16.42;;;;;;;;;;5045678;28;20053;-71
2023/04/09 11:48:55;;;;;;;21.25;16.88;;;;;;;;;;5042397;28;20708;-72
2023/04/09 11:51:22;;;;;;;18.60;14.73;;;;;;;;;;5046089;28;20052;-70
2023/04/09 11:53:49;;;;;;;17.75;15.30;;;;;;;;;;5042237;28;20152;-70
2023/04/09 11:56:16;;;;;;;17.85;14.70;;;;;;;;;;5043048;28;20109;-70
2023/04/09 11:58:46;;;;;;;19.95;15.20;;;;;;;;;;5044670;28;20045;-70
2023/04/09 12:01:12;;;;;;;20.85;16.88;;;;;;;;;;5044960;28;20056;-70
2023/04/09 12:03:38;;;;;;;17.83;14.65;;;;;;;;;;5044857;28;20368;-71
2023/04/09 12:06:05;;;;;;;18.15;14.80;;;;;;;;;;5043763;28;20047;-70
2023/04/09 12:08:34;;;;;;;17.80;14.32;;;;;;;;;;5045102;28;20048;-70
2023/04/09 12:11:14;;;;;;;20.13;16.00;;;;;;;;;;5043893;28;20057;-70
2023/04/09 12:13:42;;;;;;;19.33;16.05;;;;;;;;;;5043675;28;20102;-70
2023/04/09 12:16:09;;;;;;;19.70;16.15;;;;;;;;;;5044836;28;20053;-70
2023/04/09 12:18:38;;;;;;;18.75;15.93;;;;;;;;;;5044734;28;20123;-70
2023/04/09 12:21:05;;;;;;;17.48;14.93;;;;;;;;;;5046137;28;20045;-71
2023/04/09 12:23:32;;;;;;;18.08;14.60;;;;;;;;;;5046297;28;20136;-70
2023/04/09 12:25:59;;;;;;;18.42;15.52;;;;;;;;;;5045563;28;20271;-70
2023/04/09 12:28:26;;;;;;;17.42;14.18;;;;;;;;;;5045879;28;20468;-70
2023/04/09 12:30:53;;;;;;;20.38;16.15;;;;;;;;;;5044747;28;20411;-70
2023/04/09 12:33:19;;;;;;;21.58;17.05;;;;;;;;;;5045734;28;20595;-70
2023/04/09 12:35:45;;;;;;;20.55;16.35;;;;;;;;;;5045491;28;20048;-70
2023/04/09 12:38:11;;;;;;;23.38;18.70;;;;;;;;;;5044749;28;20052;-71
2023/04/09 12:40:37;;;;;;;21.17;16.77;;;;;;;;;;5046008;28;20411;-70
2023/04/09 12:43:03;;;;;;;17.60;14.57;;;;;;;;;;5044639;28;20051;-70
2023/04/09 12:45:30;;;;;;;15.77;13.90;;;;;;;;;;5045006;28;20637;-70
2023/04/09 12:47:56;;;;;;;15.68;13.60;;;;;;;;;;5044164;28;20084;-70
2023/04/09 12:50:23;;;;;;;17.65;14.13;;;;;;;;;;5045538;28;20126;-70
2023/04/09 12:52:49;;;;;;;18.38;15.10;;;;;;;;;;5044529;28;20049;-71
2023/04/09 12:55:15;;;;;;;17.10;15.30;;;;;;;;;;5045288;28;20490;-71
2023/04/09 12:57:45;;;;;;;20.40;15.13;;;;;;;;;;5045509;28;20119;-70
2023/04/09 13:00:12;;;;;;;18.05;14.85;;;;;;;;;;5044841;28;20049;-71
2023/04/09 13:02:38;;;;;;;14.82;12.88;;;;;;;;;;5046129;28;20045;-70
2023/04/09 13:05:04;;;;;;;17.88;14.93;;;;;;;;;;5045527;28;20435;-71
2023/04/09 13:07:30;;;;;;;17.33;13.25;;;;;;;;;;5043795;28;20041;-70
2023/04/09 13:09:56;;;;;;;16.55;14.40;;;;;;;;;;5042435;28;20110;-70
2023/04/09 13:12:22;;;;;;;17.33;14.38;;;;;;;;;;5044719;28;20124;-70
2023/04/09 13:14:49;;;;;;;17.15;14.95;;;;;;;;;;5043986;28;20044;-70
2023/04/09 13:17:15;;;;;;;15.05;12.77;;;;;;;;;;5043704;28;20144;-71
2023/04/09 13:19:41;;;;;;;17.17;14.68;;;;;;;;;;5045244;28;20053;-70
2023/04/09 13:22:07;;;;;;;18.55;16.17;;;;;;;;;;5044714;28;20098;-70
2023/04/09 13:24:37;;;;;;;17.92;14.73;;;;;;;;;;5039609;28;20045;-71
2023/04/09 13:27:08;;;;;;;14.52;12.70;;;;;;;;;;5043375;28;20675;-72
2023/04/09 13:29:34;;;;;;;13.80;12.30;;;;;;;;;;5039442;28;20450;-71
2023/04/09 13:32:05;;;;;;;19.50;14.85;;;;;;;;;;5031776;28;20050;-69
2023/04/09 13:34:32;;;;;;;16.50;13.20;;;;;;;;;;5035582;28;20060;-71
2023/04/09 13:36:58;;;;;;;18.48;15.18;;;;;;;;;;5035981;28;20052;-71
2023/04/09 13:39:25;;;;;;;15.98;12.80;;;;;;;;;;5032968;28;20121;-71
2023/04/09 13:41:51;;;;;;;16.17;13.30;;;;;;;;;;5036322;28;20036;-71
2023/04/09 13:44:17;;;;;;;13.85;11.32;;;;;;;;;;5037061;28;20038;-71
2023/04/09 13:46:43;;;;;;;14.98;12.65;;;;;;;;;;5031540;28;20056;-72
2023/04/09 13:49:09;;;;;;;16.65;14.63;;;;;;;;;;5032224;28;20140;-72
2023/04/09 13:51:35;;;;;;;15.63;13.30;;;;;;;;;;5035959;28;20064;-71
2023/04/09 13:54:01;;;;;;;16.60;14.90;;;;;;;;;;5034876;28;20118;-71
2023/04/09 13:56:27;;;;;;;17.95;14.65;;;;;;;;;;5035404;28;20045;-71
2023/04/09 13:58:53;;;;;;;15.32;12.68;;;;;;;;;;5036096;28;20088;-71
2023/04/09 14:01:20;;;;;;;13.93;12.48;;;;;;;;;;5036520;28;20687;-71
2023/04/09 14:03:46;;;;;;;15.48;13.45;;;;;;;;;;5044695;28;20045;-71
2023/04/09 14:06:12;;;;;;;15.20;13.48;;;;;;;;;;5036830;28;20045;-71
2023/04/09 14:08:38;;;;;;;13.18;11.48;;;;;;;;;;5040050;28;20053;-71
2023/04/09 14:11:04;;;;;;;14.70;12.43;;;;;;;;;;5034982;28;20041;-71
2023/04/09 14:13:30;;;;;;;13.82;12.35;;;;;;;;;;5038695;28;20631;-71
2023/04/09 14:15:56;;;;;;;13.23;11.60;;;;;;;;;;5034000;28;20117;-71
2023/04/09 14:18:22;;;;;;;13.80;11.73;;;;;;;;;;5031786;28;20436;-71
2023/04/09 14:20:48;;;;;;;14.98;12.95;;;;;;;;;;5030557;28;20057;-71